Time;durP1;ratioP1;P1;durP2;ratioP2;P2;SDS_P1;SDS_P2;PMS_P1;PMS_P2;Temp;Humidity;BMP_temperature;BMP_pressure;BME280_temperature;BME280_humidity;BME280_pressure;Samples;Min_cycle;Max_cycle;Signal;HPM_P1;HPM_P2
2023/03/20 00:00:39;;;;;;;21.67;10.88;;;;;;;7.69;100.00;102025.31;5066303;28;20398;-42
2023/03/20 00:03:05;;;;;;;16.90;10.05;;;;;;;7.68;100.00;102023.56;5067385;28;20652;-44
2023/03/20 00:05:30;;;;;;;22.45;10.95;;;;;;;7.67;100.00;102023.50;5066257;28;20033;-42
2023/03/20 00:07:57;;;;;;;21.50;9.90;;;;;;;7.65;100.00;102019.97;5073331;28;20055;-43
2023/03/20 00:10:37;;;;;;;18.60;9.63;;;;;;;7.65;100.00;102014.84;5071577;28;20028;-45
2023/03/20 00:13:05;;;;;;;23.95;10.15;;;;;;;7.65;100.00;102009.72;5067376;28;20403;-44
2023/03/20 00:15:38;;;;;;;19.63;9.82;;;;;;;7.64;100.00;102013.94;5071372;28;20032;-45
2023/03/20 00:18:17;;;;;;;19.55;9.98;;;;;;;7.64;100.00;102020.72;5065992;28;20502;-43
2023/03/20 00:20:44;;;;;;;19.65;9.70;;;;;;;7.62;100.00;102015.53;5070148;28;20085;-43
2023/03/20 00:23:09;;;;;;;18.30;9.80;;;;;;;7.62;100.00;102017.22;5070938;28;20033;-43
2023/03/20 00:25:38;;;;;;;20.83;9.95;;;;;;;7.61;100.00;102008.66;5072313;28;20039;-42
2023/03/20 00:28:29;;;;;;;19.38;9.73;;;;;;;7.61;100.00;102005.22;5071665;28;20135;-43
2023/03/20 00:30:54;;;;;;;19.92;9.85;;;;;;;7.57;100.00;102000.69;5069074;28;20059;-43
2023/03/20 00:33:20;;;;;;;22.48;10.30;;;;;;;7.58;100.00;101992.22;5072065;28;20104;-42
2023/03/20 00:35:45;;;;;;;20.67;9.93;;;;;;;7.57;100.00;101993.91;5070195;28;20029;-43
2023/03/20 00:38:10;;;;;;;21.88;10.20;;;;;;;7.56;100.00;101981.91;5073181;28;20048;-43
2023/03/20 00:40:36;;;;;;;18.42;9.85;;;;;;;7.54;100.00;101986.06;5074090;28;20032;-44
2023/03/20 00:43:03;;;;;;;22.70;10.55;;;;;;;7.53;100.00;101990.28;5055807;28;20046;-42
2023/03/20 00:45:31;;;;;;;25.27;10.85;;;;;;;7.49;100.00;101980.66;5061303;28;20114;-42
2023/03/20 00:47:57;;;;;;;22.30;10.75;;;;;;;7.46;100.00;101966.78;5076841;28;20023;-42
2023/03/20 00:50:26;;;;;;;22.08;10.57;;;;;;;7.41;100.00;101968.22;5073387;28;20025;-43
2023/03/20 00:52:52;;;;;;;28.05;11.10;;;;;;;7.38;100.00;101968.03;5074605;28;20024;-44
2023/03/20 00:55:20;;;;;;;20.25;11.15;;;;;;;7.33;100.00;101988.22;5070364;28;20096;-43
2023/03/20 00:58:00;;;;;;;25.67;11.37;;;;;;;7.28;100.00;101989.66;5075645;28;20074;-44
2023/03/20 01:00:37;;;;;;;24.20;11.43;;;;;;;7.21;100.00;102000.28;5075243;28;20040;-45
2023/03/20 01:03:15;;;;;;;19.70;11.68;;;;;;;7.13;100.00;102011.75;5073679;28;20044;-45
2023/03/20 01:05:40;;;;;;;21.73;11.65;;;;;;;7.05;100.00;102028.31;5074065;28;20031;-43
2023/03/20 01:08:13;;;;;;;23.92;11.52;;;;;;;7.02;100.00;102030.66;5074953;28;20024;-43
2023/03/20 01:10:40;;;;;;;23.05;10.82;;;;;;;6.99;100.00;102034.81;5080966;28;20050;-44
2023/03/20 01:13:12;;;;;;;22.10;10.75;;;;;;;6.96;100.00;102032.06;5074220;28;20120;-45
2023/03/20 01:15:37;;;;;;;24.92;11.25;;;;;;;6.95;100.00;102027.75;5058964;28;20021;-43
2023/03/20 01:18:03;;;;;;;22.75;10.98;;;;;;;6.95;100.00;102016.63;5075009;28;20044;-43
2023/03/20 01:20:29;;;;;;;24.90;10.95;;;;;;;6.90;100.00;102008.66;5072897;28;20044;-44
2023/03/20 01:22:55;;;;;;;20.25;11.13;;;;;;;6.83;100.00;102011.66;5077214;28;20031;-47
2023/03/20 01:25:21;;;;;;;25.02;11.57;;;;;;;6.76;100.00;102009.50;5074176;28;20044;-44
2023/03/20 01:27:50;;;;;;;25.52;11.75;;;;;;;6.70;100.00;102004.91;5076801;28;20362;-44
2023/03/20 01:30:17;;;;;;;;;;;;;;;6.70;100.00;102019.34;5082688;28;20055;-44
2023/03/20 01:32:43;;;;;;;23.23;11.48;;;;;;;6.58;100.00;102026.25;5071500;28;19912;-43
2023/03/20 01:35:12;;;;;;;25.67;11.85;;;;;;;6.53;100.00;102018.31;5080742;28;20088;-44
2023/03/20 01:37:37;;;;;;;25.35;12.73;;;;;;;6.49;100.00;102026.56;5077664;28;20054;-45
2023/03/20 01:40:09;;;;;;;24.23;12.70;;;;;;;6.42;100.00;102022.72;5080558;28;20482;-44
2023/03/20 01:42:35;;;;;;;26.73;12.48;;;;;;;6.38;100.00;102023.34;5063137;28;20729;-48
2023/03/20 01:45:00;;;;;;;29.88;13.23;;;;;;;6.34;100.00;102026.47;5076696;28;20023;-47
2023/03/20 01:47:26;;;;;;;28.05;13.57;;;;;;;6.29;100.00;102009.97;5054493;28;20034;-47
2023/03/20 01:50:18;;;;;;;26.42;13.50;;;;;;;6.25;100.00;102004.56;5077161;28;20086;-49
2023/03/20 01:52:44;;;;;;;26.20;14.38;;;;;;;6.18;100.00;101998.19;5076228;28;20031;-48
2023/03/20 01:55:10;;;;;;;34.92;16.52;;;;;;;6.16;100.00;102008.31;5080646;28;20020;-48
2023/03/20 01:57:36;;;;;;;29.98;14.93;;;;;;;6.15;100.00;102023.53;5076980;28;20035;-48
2023/03/20 02:00:10;;;;;;;26.48;14.90;;;;;;;6.09;100.00;102018.03;5078156;28;20032;-48
2023/03/20 02:02:37;;;;;;;31.98;15.15;;;;;;;6.06;100.00;102015.28;5076999;28;20020;-47
2023/03/20 02:05:07;;;;;;;29.40;14.77;;;;;;;6.03;100.00;102012.53;5080077;28;20111;-47
2023/03/20 02:07:34;;;;;;;32.10;15.13;;;;;;;6.00;100.00;102004.66;5073114;28;20130;-48
2023/03/20 02:10:02;;;;;;;31.52;15.75;;;;;;;5.97;100.00;101994.28;5076733;28;20028;-42
2023/03/20 02:12:28;;;;;;;29.25;15.30;;;;;;;5.93;100.00;102010.16;5075220;28;20081;-43
2023/03/20 02:14:53;;;;;;;28.80;14.75;;;;;;;5.85;100.00;102020.72;5054491;28;20032;-43
2023/03/20 02:17:19;;;;;;;30.77;14.52;;;;;;;5.79;100.00;102017.78;5076955;28;20024;-43
2023/03/20 02:20:13;;;;;;;31.17;14.32;;;;;;;5.78;100.00;102027.91;5075818;28;20077;-44
2023/03/20 02:23:15;;;;;;;28.95;14.20;;;;;;;5.70;100.00;102027.38;5074781;28;20034;-43
2023/03/20 02:25:59;;;;;;;31.17;14.75;;;;;;;5.63;100.00;102032.84;5072474;28;20020;-43
2023/03/20 02:28:44;;;;;;;29.00;14.90;;;;;;;5.60;100.00;102037.78;5072577;28;20058;-45
2023/03/20 02:31:41;;;;;;;31.15;15.50;;;;;;;5.59;100.00;102028.34;5076437;28;20502;-42
2023/03/20 02:34:16;;;;;;;33.25;15.23;;;;;;;5.58;100.00;102029.09;5074920;28;20032;-43
2023/03/20 02:37:34;;;;;;;30.92;15.48;;;;;;;5.59;100.00;102026.69;5075182;28;20028;-42
2023/03/20 02:40:04;;;;;;;34.17;15.93;;;;;;;5.63;100.00;102018.44;5023821;28;20147;-43
2023/03/20 02:42:43;;;;;;;41.13;17.40;;;;;;;5.63;100.00;102015.88;5032713;28;20288;-43
2023/03/20 02:45:25;;;;;;;33.78;17.08;;;;;;;5.66;100.00;102010.09;5043963;28;20021;-43
2023/03/20 02:48:15;;;;;;;39.90;16.88;;;;;;;5.67;100.00;102006.75;5033371;28;20025;-43
2023/03/20 02:50:48;;;;;;;35.03;16.75;;;;;;;5.67;100.00;102001.66;5040407;28;20379;-43
2023/03/20 02:53:26;;;;;;;33.45;16.80;;;;;;;5.69;100.00;102005.19;5037907;28;20044;-43
2023/03/20 02:56:10;;;;;;;31.48;16.88;;;;;;;5.66;100.00;101994.78;5033158;28;20025;-42
2023/03/20 02:58:45;;;;;;;39.30;18.40;;;;;;;5.66;100.00;101994.78;5032752;28;20045;-42
2023/03/20 03:01:15;;;;;;;35.80;17.58;;;;;;;5.65;100.00;101996.47;5030153;28;20128;-42
2023/03/20 03:03:50;;;;;;;33.00;17.50;;;;;;;5.64;100.00;101992.16;5034607;28;20421;-43
2023/03/20 03:06:34;;;;;;;35.83;17.55;;;;;;;5.61;100.00;101991.06;5037579;28;20047;-43
2023/03/20 03:09:13;;;;;;;33.60;17.25;;;;;;;5.59;100.00;101990.06;5031730;28;20060;-44
2023/03/20 03:11:48;;;;;;;29.65;16.33;;;;;;;5.56;100.00;101982.22;5036252;28;20032;-43
2023/03/20 03:14:39;;;;;;;33.35;16.17;;;;;;;5.52;100.00;101976.03;5032093;28;20025;-43
2023/03/20 03:17:07;;;;;;;31.00;16.63;;;;;;;5.51;100.00;101970.81;5033479;28;21509;-44
2023/03/20 03:19:35;;;;;;;35.78;16.05;;;;;;;5.48;100.00;101963.84;5030426;28;20049;-43
2023/03/20 03:22:00;;;;;;;33.17;16.27;;;;;;;5.49;100.00;101957.97;5030383;28;20021;-43
2023/03/20 03:24:32;;;;;;;31.02;15.88;;;;;;;5.48;100.00;101963.84;5033021;28;20044;-43
2023/03/20 03:27:02;;;;;;;33.72;16.67;;;;;;;5.48;100.00;101947.66;5034385;28;20051;-42
2023/03/20 03:29:32;;;;;;;37.03;16.92;;;;;;;5.48;100.00;101962.97;5028460;28;20026;-42
2023/03/20 03:32:01;;;;;;;34.03;16.98;;;;;;;5.43;100.00;101954.13;5031863;28;20037;-42
2023/03/20 03:34:27;;;;;;;30.42;16.23;;;;;;;5.41;100.00;101956.59;5029382;28;20025;-42
2023/03/20 03:37:01;;;;;;;35.90;16.83;;;;;;;5.42;100.00;101948.13;5031209;28;20032;-43
2023/03/20 03:39:47;;;;;;;35.83;16.52;;;;;;;5.42;100.00;101960.00;5066876;28;20095;-49
2023/03/20 03:42:42;;;;;;;28.77;15.77;;;;;;;5.42;100.00;101947.25;5074051;28;20028;-44
2023/03/20 03:45:10;;;;;;;28.90;16.00;;;;;;;5.41;100.00;101950.59;5071973;28;20043;-43
2023/03/20 03:47:46;;;;;;;29.30;15.77;;;;;;;5.39;100.00;101955.56;5074548;28;20162;-42
2023/03/20 03:50:35;;;;;;;26.13;14.98;;;;;;;5.38;100.00;101949.59;5074515;28;20490;-43
2023/03/20 03:53:08;;;;;;;33.17;16.00;;;;;;;5.37;100.00;101946.94;5056520;28;20463;-42
2023/03/20 03:55:42;;;;;;;32.85;16.15;;;;;;;5.36;100.00;101955.38;5070914;28;20028;-42
2023/03/20 03:58:25;;;;;;;34.35;15.30;;;;;;;5.36;100.00;101963.03;5067009;28;20028;-42
2023/03/20 04:00:53;;;;;;;27.90;15.65;;;;;;;5.33;100.00;101945.84;5071000;28;20083;-42
2023/03/20 04:03:22;;;;;;;28.55;15.13;;;;;;;5.30;100.00;101948.22;5073715;28;20033;-44
2023/03/20 04:05:51;;;;;;;32.72;16.38;;;;;;;5.28;100.00;101951.47;5073535;28;20025;-44
2023/03/20 04:08:16;;;;;;;27.50;15.02;;;;;;;5.25;100.00;101935.94;5074561;28;20372;-43
2023/03/20 04:10:42;;;;;;;30.20;16.02;;;;;;;5.26;100.00;101940.25;5075629;28;20081;-43
2023/03/20 04:13:07;;;;;;;31.58;15.38;;;;;;;5.23;100.00;101948.59;5061331;28;20423;-44
2023/03/20 04:15:33;;;;;;;32.42;16.92;;;;;;;5.23;100.00;101940.06;5077934;28;20490;-43
2023/03/20 04:17:58;;;;;;;26.33;14.93;;;;;;;5.21;100.00;101942.47;5082308;28;20017;-44
2023/03/20 04:20:24;;;;;;;25.65;14.40;;;;;;;5.16;100.00;101936.22;5078987;28;20382;-43
2023/03/20 04:22:49;;;;;;;31.75;16.02;;;;;;;5.16;100.00;101936.22;5060471;28;20040;-43
2023/03/20 04:25:20;;;;;;;31.20;15.25;;;;;;;5.14;100.00;101940.31;5075779;28;20067;-45
2023/03/20 04:27:46;;;;;;;28.40;15.55;;;;;;;5.11;100.00;101937.56;5076805;28;20028;-46
2023/03/20 04:30:12;;;;;;;29.85;16.05;;;;;;;5.10;100.00;101931.59;5057213;28;20024;-43
2023/03/20 04:32:37;;;;;;;30.45;15.73;;;;;;;5.09;100.00;101923.81;5059007;28;20020;-47
2023/03/20 04:35:03;;;;;;;30.13;15.63;;;;;;;5.09;100.00;101934.91;5075072;28;20032;-46
2023/03/20 04:37:29;;;;;;;30.73;15.82;;;;;;;5.06;100.00;101924.50;5074697;28;20037;-48
2023/03/20 04:39:54;;;;;;;27.42;15.65;;;;;;;5.06;100.00;101933.81;5064970;28;20182;-49
2023/03/20 04:42:20;;;;;;;27.27;15.98;;;;;;;5.06;100.00;101927.06;5076090;28;20037;-53
2023/03/20 04:44:45;;;;;;;34.35;16.45;;;;;;;5.04;100.00;101915.00;5076205;28;20036;-50
2023/03/20 04:47:10;;;;;;;28.98;15.48;;;;;;;5.05;100.00;101912.56;5057221;28;20087;-49
2023/03/20 04:49:36;;;;;;;27.13;15.77;;;;;;;5.05;100.00;101916.75;5072781;28;20016;-52
2023/03/20 04:52:01;;;;;;;27.98;15.45;;;;;;;5.05;100.00;101902.34;5076033;28;20495;-49
2023/03/20 04:54:27;;;;;;;29.30;16.17;;;;;;;5.07;100.00;101917.75;5074076;28;20031;-50
2023/03/20 04:56:52;;;;;;;31.13;16.20;;;;;;;5.06;100.00;101909.22;5075497;28;20020;-47
2023/03/20 04:59:17;;;;;;;30.20;16.30;;;;;;;5.06;100.00;101921.09;5059284;28;20041;-47
2023/03/20 05:01:43;;;;;;;32.70;16.65;;;;;;;5.05;100.00;101932.94;5071960;28;20115;-48
2023/03/20 05:04:08;;;;;;;31.55;16.05;;;;;;;5.06;100.00;101927.06;5076112;28;20028;-48
2023/03/20 05:06:34;;;;;;;28.77;15.77;;;;;;;5.08;100.00;101932.25;5074696;28;20035;-47
2023/03/20 05:09:00;;;;;;;30.67;16.17;;;;;;;5.09;100.00;101928.91;5077728;28;20483;-47
2023/03/20 05:11:26;;;;;;;34.15;16.27;;;;;;;5.11;100.00;101923.16;5080470;28;20054;-48
2023/03/20 05:13:52;;;;;;;30.48;16.92;;;;;;;5.11;100.00;101906.97;5078339;28;20035;-49
2023/03/20 05:16:17;;;;;;;32.72;15.48;;;;;;;5.13;100.00;101910.50;5073004;28;20032;-50
2023/03/20 05:18:43;;;;;;;29.63;15.60;;;;;;;5.15;100.00;101908.03;5073628;28;20040;-50
2023/03/20 05:21:08;;;;;;;27.73;15.38;;;;;;;5.13;100.00;101895.22;5077265;28;20028;-46
2023/03/20 05:23:35;;;;;;;28.98;15.43;;;;;;;5.15;100.00;101902.94;5075997;28;20115;-43
2023/03/20 05:26:00;;;;;;;28.02;15.30;;;;;;;5.15;100.00;101902.94;5074511;28;20548;-44
2023/03/20 05:28:26;;;;;;;33.38;16.05;;;;;;;5.14;100.00;101907.16;5072526;28;20032;-43
2023/03/20 05:30:52;;;;;;;31.50;16.33;;;;;;;5.16;100.00;101910.72;5059982;28;20110;-44
2023/03/20 05:33:17;;;;;;;30.98;15.38;;;;;;;5.17;100.00;101904.84;5081926;28;20032;-42
2023/03/20 05:35:43;;;;;;;28.15;15.60;;;;;;;5.17;100.00;101902.28;5074333;28;20024;-45
2023/03/20 05:38:08;;;;;;;30.42;15.55;;;;;;;5.17;100.00;101897.19;5058326;28;20456;-43
2023/03/20 05:40:34;;;;;;;30.95;15.07;;;;;;;5.19;100.00;101908.34;5050862;28;20048;-44
2023/03/20 05:42:59;;;;;;;30.38;15.35;;;;;;;5.20;100.00;101911.78;5077310;28;20149;-43
2023/03/20 05:45:25;;;;;;;31.13;14.68;;;;;;;5.19;100.00;101905.81;5078977;28;20039;-43
2023/03/20 05:47:50;;;;;;;31.33;14.85;;;;;;;5.22;100.00;101912.81;5072081;28;20029;-43
2023/03/20 05:50:15;;;;;;;30.45;15.02;;;;;;;5.21;100.00;101914.44;5081614;28;20034;-48
2023/03/20 05:52:41;;;;;;;29.88;14.13;;;;;;;5.22;100.00;101917.91;5074909;28;20744;-43
2023/03/20 05:55:06;;;;;;;27.10;14.15;;;;;;;5.22;100.00;101928.97;5075689;28;20547;-45
2023/03/20 05:57:32;;;;;;;27.50;14.02;;;;;;;5.24;100.00;101924.84;5073707;28;20032;-45
2023/03/20 05:59:57;;;;;;;31.48;14.52;;;;;;;5.25;100.00;101926.63;5075221;28;20329;-46
2023/03/20 06:02:23;;;;;;;25.52;13.93;;;;;;;5.28;100.00;101931.94;5072792;28;20145;-44
2023/03/20 06:04:48;;;;;;;28.52;13.50;;;;;;;5.29;100.00;101926.03;5070857;28;20039;-44
2023/03/20 06:07:14;;;;;;;30.65;13.10;;;;;;;5.34;100.00;101934.00;5070552;28;20028;-44
2023/03/20 06:09:39;;;;;;;23.50;12.90;;;;;;;5.34;100.00;101937.44;5076803;28;20020;-42
2023/03/20 06:12:05;;;;;;;28.50;12.60;;;;;;;5.37;100.00;101942.72;5076771;28;20044;-43
2023/03/20 06:14:31;;;;;;;24.42;12.70;;;;;;;5.41;100.00;101942.94;5074527;28;20055;-46
2023/03/20 06:16:56;;;;;;;31.38;13.00;;;;;;;5.45;100.00;101947.44;5073893;28;20468;-43
2023/03/20 06:19:22;;;;;;;27.15;12.57;;;;;;;5.46;100.00;101945.03;5074449;28;20747;-43
2023/03/20 06:21:49;;;;;;;26.23;11.98;;;;;;;5.50;100.00;101948.63;5070248;28;20033;-44
2023/03/20 06:24:15;;;;;;;26.23;11.98;;;;;;;5.53;100.00;101951.41;5074407;28;20134;-43
2023/03/20 06:26:40;;;;;;;22.88;11.05;;;;;;;5.57;100.00;101950.81;5080045;28;20569;-43
2023/03/20 06:29:06;;;;;;;22.60;11.32;;;;;;;5.61;100.00;101961.31;5080746;28;20104;-45
2023/03/20 06:31:31;;;;;;;22.70;12.10;;;;;;;5.64;100.00;101958.97;5078776;28;20380;-45
2023/03/20 06:33:56;;;;;;;26.10;12.38;;;;;;;5.68;100.00;101960.03;5057698;28;20032;-43
2023/03/20 06:36:22;;;;;;;23.52;11.02;;;;;;;5.73;100.00;101962.91;5055069;28;20043;-44
2023/03/20 06:38:48;;;;;;;22.23;10.85;;;;;;;5.77;100.00;101952.13;5073942;28;20036;-43
2023/03/20 06:41:13;;;;;;;20.95;11.38;;;;;;;5.82;100.00;101954.16;5072444;28;20048;-43
2023/03/20 06:43:38;;;;;;;24.95;11.48;;;;;;;5.89;100.00;101960.56;5074029;28;20032;-42
2023/03/20 06:46:05;;;;;;;23.65;11.13;;;;;;;5.95;100.00;101970.31;5074579;28;20025;-43
2023/03/20 06:48:31;;;;;;;25.73;11.43;;;;;;;6.01;100.00;101966.50;5073019;28;20020;-46
2023/03/20 06:50:56;;;;;;;25.35;11.20;;;;;;;6.06;100.00;101976.97;5075253;28;20089;-43
2023/03/20 06:53:22;;;;;;;20.17;10.27;;;;;;;6.09;100.00;101974.63;5073866;28;20685;-44
2023/03/20 06:55:50;;;;;;;21.55;10.10;;;;;;;6.14;100.00;101976.69;5069576;28;20032;-44
2023/03/20 06:58:16;;;;;;;22.70;10.10;;;;;;;6.17;100.00;101983.66;5069600;28;20387;-44
2023/03/20 07:00:41;;;;;;;23.42;10.25;;;;;;;6.20;100.00;101986.41;5072609;28;20036;-43
2023/03/20 07:03:07;;;;;;;21.88;9.95;;;;;;;6.23;100.00;101986.59;5070917;28;20465;-47
2023/03/20 07:05:33;;;;;;;22.38;9.48;;;;;;;6.25;100.00;101981.56;5071358;28;20391;-43
2023/03/20 07:07:58;;;;;;;21.40;9.70;;;;;;;6.27;100.00;101991.13;5069632;28;20047;-44
2023/03/20 07:10:24;;;;;;;23.63;10.80;;;;;;;6.29;100.00;101988.66;5073124;28;20029;-45
2023/03/20 07:12:50;;;;;;;19.55;10.00;;;;;;;6.32;100.00;101994.84;5072657;28;20020;-44
2023/03/20 07:15:19;;;;;;;24.58;9.50;;;;;;;6.36;100.00;102001.03;5074153;28;20552;-46
2023/03/20 07:17:44;;;;;;;20.10;9.75;;;;;;;6.40;100.00;101997.88;5072616;28;20028;-42
2023/03/20 07:20:10;;;;;;;21.63;9.82;;;;;;;6.40;100.00;101993.66;5074536;28;20024;-43
2023/03/20 07:22:36;;;;;;;19.30;9.60;;;;;;;6.45;100.00;101994.84;5070405;28;20066;-42
2023/03/20 07:25:02;;;;;;;21.88;9.15;;;;;;;6.51;100.00;102003.69;5070460;28;20153;-43
2023/03/20 07:27:27;;;;;;;20.25;8.93;;;;;;;6.54;100.00;102011.50;5073863;28;20042;-44
2023/03/20 07:29:53;;;;;;;22.70;9.55;;;;;;;6.58;100.00;102000.72;5068266;28;20028;-43
2023/03/20 07:32:19;;;;;;;22.20;9.25;;;;;;;6.64;100.00;102003.66;5073123;28;20517;-44
2023/03/20 07:34:46;;;;;;;23.63;8.93;;;;;;;6.64;100.00;102003.66;5074574;28;20544;-43
2023/03/20 07:37:12;;;;;;;19.25;8.80;;;;;;;6.65;100.00;101998.63;5068359;28;20089;-45
2023/03/20 07:39:37;;;;;;;22.67;8.52;;;;;;;6.72;100.00;102002.44;5069596;28;20056;-43
2023/03/20 07:42:03;;;;;;;28.50;9.77;;;;;;;6.76;100.00;102006.97;5075920;28;20035;-45
2023/03/20 07:44:28;;;;;;;23.05;9.20;;;;;;;6.76;100.00;102001.84;5075620;28;20031;-42
2023/03/20 07:46:53;;;;;;;21.75;9.20;;;;;;;6.81;100.00;102004.69;5071214;28;20136;-42
2023/03/20 07:49:19;;;;;;;23.17;8.93;;;;;;;6.84;100.00;102004.88;5075046;28;20024;-43
2023/03/20 07:51:45;;;;;;;22.00;8.30;;;;;;;6.89;100.00;102001.81;5054756;28;20043;-43
2023/03/20 07:54:11;;;;;;;17.08;8.38;;;;;;;6.89;100.00;101999.25;5070457;28;20028;-43
2023/03/20 07:56:37;;;;;;;21.38;9.40;;;;;;;6.90;99.58;102002.69;5071950;28;20059;-42
2023/03/20 07:59:02;;;;;;;21.60;9.00;;;;;;;6.89;99.66;101999.25;5061256;28;20070;-43
2023/03/20 08:01:28;;;;;;;18.15;8.48;;;;;;;6.91;99.13;102000.22;5072212;28;21167;-42
2023/03/20 08:03:53;;;;;;;16.35;7.97;;;;;;;6.92;99.40;102001.13;5069498;28;20035;-44
2023/03/20 08:06:19;;;;;;;22.83;9.18;;;;;;;6.95;99.83;102002.16;5068989;28;20732;-42
2023/03/20 08:08:45;;;;;;;20.42;8.30;;;;;;;6.95;98.87;101999.63;5068469;28;20040;-42
2023/03/20 08:11:11;;;;;;;18.02;8.32;;;;;;;6.94;99.04;101990.19;5053652;28;20032;-46
2023/03/20 08:13:36;;;;;;;16.67;8.02;;;;;;;6.94;98.39;102002.97;5067674;28;20040;-43
2023/03/20 08:16:02;;;;;;;20.08;8.60;;;;;;;6.92;98.97;101996.00;5048992;28;20037;-44
2023/03/20 08:18:28;;;;;;;18.88;8.07;;;;;;;6.92;98.24;102006.22;5050717;28;20037;-44
2023/03/20 08:20:54;;;;;;;17.20;8.20;;;;;;;6.92;98.55;101996.88;5072105;28;20028;-43
2023/03/20 08:23:19;;;;;;;18.35;8.32;;;;;;;6.93;98.06;102000.31;5069920;28;20028;-43
2023/03/20 08:25:49;;;;;;;19.02;8.00;;;;;;;6.95;97.94;102003.84;5073942;28;20032;-43
2023/03/20 08:28:15;;;;;;;19.52;7.90;;;;;;;6.97;98.58;101997.13;5070304;28;20032;-43
2023/03/20 08:30:40;;;;;;;17.60;8.63;;;;;;;7.01;97.87;101991.44;5066169;28;20093;-44
2023/03/20 08:33:06;;;;;;;17.40;8.38;;;;;;;7.05;97.86;102003.63;5047150;28;20033;-42
2023/03/20 08:35:31;;;;;;;21.00;8.18;;;;;;;7.08;97.23;102006.34;5071086;28;20028;-41
2023/03/20 08:37:57;;;;;;;18.33;8.38;;;;;;;7.13;97.24;102001.53;5068198;28;20039;-42
2023/03/20 08:40:22;;;;;;;22.02;8.13;;;;;;;7.19;96.60;102017.22;5072631;28;20109;-43
2023/03/20 08:42:48;;;;;;;18.75;7.75;;;;;;;7.22;96.15;102007.19;5069507;28;20135;-44
2023/03/20 08:45:13;;;;;;;20.02;7.95;;;;;;;7.28;95.79;102017.81;5070416;28;20059;-43
2023/03/20 08:47:39;;;;;;;18.35;8.25;;;;;;;7.30;95.76;102003.41;5070530;28;20597;-44
2023/03/20 08:50:06;;;;;;;17.92;7.63;;;;;;;7.34;95.02;102012.13;5067384;28;20502;-42
2023/03/20 08:52:31;;;;;;;17.73;7.65;;;;;;;7.34;95.14;102010.50;5069234;28;20550;-44
2023/03/20 08:54:57;;;;;;;20.52;7.65;;;;;;;7.40;95.50;101998.06;5055048;28;20131;-42
2023/03/20 08:57:22;;;;;;;17.13;7.03;;;;;;;7.48;94.61;101990.81;5069661;28;20143;-46
2023/03/20 08:59:47;;;;;;;16.25;7.10;;;;;;;7.53;93.70;102000.53;5075498;28;20506;-45
2023/03/20 09:02:13;;;;;;;21.45;7.18;;;;;;;7.56;93.17;101993.81;5069925;28;20050;-45
2023/03/20 09:04:38;;;;;;;20.13;7.03;;;;;;;7.58;93.45;101990.53;5068592;28;20059;-43
2023/03/20 09:07:04;;;;;;;19.95;7.15;;;;;;;7.63;94.05;101994.25;5054186;28;20107;-42
2023/03/20 09:09:29;;;;;;;17.80;6.78;;;;;;;7.65;93.05;101997.81;5050388;28;20029;-42
2023/03/20 09:11:56;;;;;;;20.17;7.10;;;;;;;7.65;92.81;102000.38;5072036;28;20775;-42
2023/03/20 09:14:22;;;;;;;15.38;6.63;;;;;;;7.65;92.75;102000.38;5073217;28;20035;-43
2023/03/20 09:16:48;;;;;;;22.77;8.10;;;;;;;7.65;93.68;102008.03;5074842;28;20043;-42
2023/03/20 09:19:14;;;;;;;21.33;7.60;;;;;;;7.71;95.18;102012.63;5072420;28;20029;-44
2023/03/20 09:21:39;;;;;;;19.35;7.45;;;;;;;7.72;96.83;102010.16;5077001;28;20031;-43
2023/03/20 09:24:05;;;;;;;23.67;7.90;;;;;;;7.74;96.72;102012.81;5053184;28;20046;-42
2023/03/20 09:26:30;;;;;;;17.58;7.18;;;;;;;7.72;97.28;102011.84;5074742;28;20149;-42
2023/03/20 09:28:56;;;;;;;22.58;7.50;;;;;;;7.71;98.01;102010.06;5071750;28;20028;-44
2023/03/20 09:31:22;;;;;;;19.27;7.80;;;;;;;7.67;99.13;102008.13;5074953;28;20616;-44
2023/03/20 09:33:47;;;;;;;18.75;8.25;;;;;;;7.66;100.00;102012.38;5075361;28;20038;-42
2023/03/20 09:36:14;;;;;;;17.85;7.85;;;;;;;7.62;100.00;102017.22;5070918;28;20151;-43
2023/03/20 09:38:41;;;;;;;20.45;8.82;;;;;;;7.57;100.00;102011.81;5072785;28;20032;-42
2023/03/20 09:41:21;;;;;;;16.83;7.85;;;;;;;7.61;100.00;102025.69;5072541;28;20515;-42
2023/03/20 09:44:28;;;;;;;21.90;7.85;;;;;;;7.63;100.00;102024.09;5071545;28;20044;-44
2023/03/20 09:47:17;;;;;;;23.25;8.30;;;;;;;7.66;100.00;102016.59;5074008;28;20186;-43
2023/03/20 09:49:51;;;;;;;22.33;8.98;;;;;;;7.73;100.00;102019.59;5074309;28;20398;-43
2023/03/20 09:52:16;;;;;;;21.83;8.27;;;;;;;7.73;100.00;102023.84;5076233;28;20433;-42
2023/03/20 09:54:46;;;;;;;25.48;8.45;;;;;;;7.72;100.00;102016.97;5074756;28;20038;-43
2023/03/20 09:57:28;;;;;;;20.20;8.23;;;;;;;7.73;100.00;102018.72;5073092;28;20391;-42
2023/03/20 10:00:01;;;;;;;22.50;7.90;;;;;;;7.67;100.00;102010.69;5068197;28;20020;-42
2023/03/20 10:02:43;;;;;;;19.02;7.63;;;;;;;7.66;100.00;102021.72;5069512;28;20043;-49
2023/03/20 10:05:20;;;;;;;19.35;8.55;;;;;;;7.55;100.00;102008.28;5070971;28;20043;-49
2023/03/20 10:07:46;;;;;;;19.90;8.43;;;;;;;7.57;100.00;102008.38;5070956;28;20508;-49
2023/03/20 10:10:14;;;;;;;19.77;8.57;;;;;;;7.65;100.00;102007.16;5075018;28;20036;-45
2023/03/20 10:12:55;;;;;;;20.35;8.05;;;;;;;7.68;100.00;102002.22;5069281;28;20028;-48
2023/03/20 10:15:30;;;;;;;23.33;8.20;;;;;;;7.77;100.00;102007.88;5070003;28;20089;-45
2023/03/20 10:18:12;;;;;;;15.68;7.65;;;;;;;7.84;100.00;102001.44;5070834;28;20055;-47
2023/03/20 10:21:04;;;;;;;20.73;7.60;;;;;;;7.91;100.00;101999.28;5067480;28;20031;-45
2023/03/20 10:23:49;;;;;;;24.80;7.90;;;;;;;7.99;100.00;101995.47;5074710;28;20213;-45
2023/03/20 10:26:19;;;;;;;16.75;7.88;;;;;;;7.96;100.00;101995.31;5071515;28;20028;-46
2023/03/20 10:28:57;;;;;;;17.17;7.38;;;;;;;7.98;100.00;101990.28;5068536;28;20024;-47
2023/03/20 10:31:43;;;;;;;15.68;6.50;;;;;;;7.89;100.00;101993.22;5069547;28;20028;-49
2023/03/20 10:34:35;;;;;;;18.80;7.45;;;;;;;7.88;100.00;101998.22;5073442;28;20127;-50
2023/03/20 10:37:22;;;;;;;18.23;6.53;;;;;;;7.92;100.00;101989.94;5076198;28;20233;-49
2023/03/20 10:40:03;;;;;;;17.05;6.97;;;;;;;7.89;100.00;101995.78;5054076;28;20363;-46
2023/03/20 10:42:33;;;;;;;15.70;6.80;;;;;;;7.91;100.00;101983.03;5072221;28;20032;-50
2023/03/20 10:45:27;;;;;;;19.20;6.53;;;;;;;7.86;100.00;101989.56;5072924;28;20032;-50
2023/03/20 10:47:56;;;;;;;25.52;11.25;;;;;;;7.86;100.00;101989.56;5074161;28;20043;-50
2023/03/20 10:50:32;;;;;;;15.93;6.43;;;;;;;7.88;100.00;101988.84;5078313;28;20097;-49
2023/03/20 10:53:00;;;;;;;13.18;5.60;;;;;;;7.90;100.00;101994.97;5073393;28;20025;-50
2023/03/20 10:55:31;;;;;;;13.95;5.63;;;;;;;7.90;100.00;101991.53;5056140;28;20020;-45
2023/03/20 10:58:23;;;;;;;13.57;6.03;;;;;;;7.99;100.00;101994.59;5071339;28;20471;-48
2023/03/20 11:00:49;;;;;;;16.08;5.55;;;;;;;8.02;99.13;101995.66;5069369;28;20094;-46
2023/03/20 11:03:27;;;;;;;13.57;5.45;;;;;;;8.08;100.00;101990.00;5073953;28;20024;-48
2023/03/20 11:06:16;;;;;;;12.27;5.60;;;;;;;8.13;98.49;101980.00;5073710;28;20013;-47
2023/03/20 11:08:47;;;;;;;20.65;5.75;;;;;;;8.17;98.95;101981.94;5075207;28;20159;-48
2023/03/20 11:11:12;;;;;;;14.40;5.50;;;;;;;8.12;97.15;101978.22;5072520;28;20079;-47
2023/03/20 11:13:41;;;;;;;16.52;6.18;;;;;;;8.09;98.10;101975.50;5079546;28;20498;-49
2023/03/20 11:16:31;;;;;;;16.02;5.88;;;;;;;8.13;99.10;101974.88;5075534;28;20042;-50
2023/03/20 11:19:06;;;;;;;16.10;6.20;;;;;;;8.13;99.73;101959.50;5080289;28;20490;-47
2023/03/20 11:21:43;;;;;;;16.50;6.63;;;;;;;8.25;100.00;101960.16;5071711;28;20136;-49
2023/03/20 11:24:23;;;;;;;21.38;6.65;;;;;;;8.36;99.37;101960.78;5074178;28;20032;-49
2023/03/20 11:26:50;;;;;;;21.73;6.45;;;;;;;8.40;97.28;101944.78;5070156;28;20119;-46